createdAt,value
2023-01-31T00:04:18.363Z,100.00
2023-01-31T00:09:20.238Z,100.00
2023-01-31T00:14:21.782Z,100.00
2023-01-31T00:19:23.310Z,100.00
2023-01-31T00:24:27.058Z,100.00
2023-01-31T00:29:31.040Z,100.00
2023-01-31T00:34:32.601Z,100.00
2023-01-31T00:39:34.643Z,100.00
2023-01-31T00:44:36.566Z,100.00
2023-01-31T00:49:38.403Z,100.00
2023-01-31T00:54:40.074Z,100.00
2023-01-31T00:59:41.674Z,100.00
2023-01-31T01:04:43.445Z,100.00
2023-01-31T01:09:47.054Z,100.00
2023-01-31T01:14:49.334Z,100.00
2023-01-31T01:19:50.933Z,100.00
2023-01-31T01:24:52.646Z,100.00
2023-01-31T01:29:54.265Z,100.00
2023-01-31T01:34:58.360Z,100.00
2023-01-31T01:39:59.887Z,100.00
2023-01-31T01:45:05.104Z,100.00
2023-01-31T01:50:16.475Z,100.00
2023-01-31T01:55:36.575Z,100.00
2023-01-31T02:00:46.360Z,100.00
2023-01-31T02:06:01.895Z,100.00
2023-01-31T02:11:10.097Z,100.00
2023-01-31T02:16:12.844Z,100.00
2023-01-31T02:21:52.543Z,100.00
2023-01-31T02:27:18.586Z,100.00
2023-01-31T02:32:39.381Z,100.00
2023-01-31T02:38:08.803Z,100.00
2023-01-31T02:43:22.937Z,100.00
2023-01-31T02:48:43.682Z,100.00
2023-01-31T02:53:57.066Z,100.00
2023-01-31T02:59:12.835Z,100.00
2023-01-31T03:04:14.858Z,100.00
2023-01-31T03:09:25.709Z,100.00
2023-01-31T03:14:36.417Z,100.00
2023-01-31T03:19:59.072Z,100.00
2023-01-31T03:25:05.517Z,100.00
2023-01-31T03:30:18.794Z,100.00
2023-01-31T03:35:24.115Z,100.00
2023-01-31T03:40:41.993Z,100.00
2023-01-31T03:45:55.861Z,100.00
2023-01-31T03:51:01.593Z,100.00
2023-01-31T03:56:09.775Z,100.00
2023-01-31T04:01:12.921Z,100.00
2023-01-31T04:06:15.021Z,100.00
2023-01-31T04:11:21.579Z,100.00
2023-01-31T04:16:23.601Z,100.00
2023-01-31T04:21:25.256Z,100.00
2023-01-31T04:26:26.921Z,100.00
2023-01-31T04:31:28.603Z,100.00
2023-01-31T04:36:30.361Z,100.00
2023-01-31T04:41:32.080Z,100.00
2023-01-31T04:46:33.706Z,100.00
2023-01-31T04:51:35.292Z,100.00
2023-01-31T04:56:36.827Z,100.00
2023-01-31T05:01:38.381Z,100.00
2023-01-31T05:06:39.958Z,100.00
2023-01-31T05:11:41.527Z,100.00
2023-01-31T05:16:47.299Z,100.00
2023-01-31T05:22:00.628Z,100.00
2023-01-31T05:27:02.690Z,100.00
2023-01-31T05:32:05.990Z,100.00
2023-01-31T05:37:07.573Z,100.00
2023-01-31T05:42:09.112Z,100.00
2023-01-31T05:47:10.879Z,100.00
2023-01-31T05:52:12.495Z,100.00
2023-01-31T05:57:15.294Z,100.00
2023-01-31T06:02:17.022Z,100.00
2023-01-31T06:07:18.655Z,100.00
2023-01-31T06:12:20.219Z,100.00
2023-01-31T06:17:24.043Z,100.00
2023-01-31T06:22:27.760Z,100.00
2023-01-31T06:27:33.035Z,100.00
2023-01-31T06:32:34.645Z,100.00
2023-01-31T06:37:36.192Z,100.00
2023-01-31T06:42:37.773Z,100.00
2023-01-31T06:47:39.555Z,100.00
2023-01-31T06:52:41.627Z,100.00
2023-01-31T06:57:47.452Z,100.00
2023-01-31T07:02:49.254Z,100.00
2023-01-31T07:07:53.861Z,100.00
2023-01-31T07:12:55.536Z,100.00
2023-01-31T07:17:59.438Z,100.00
2023-01-31T07:23:01.212Z,100.00
2023-01-31T07:28:03.437Z,100.00
2023-01-31T07:33:05.648Z,100.00
2023-01-31T07:38:07.835Z,100.00
2023-01-31T07:43:10.487Z,100.00
2023-01-31T07:48:13.226Z,100.00
2023-01-31T07:53:14.763Z,100.00
2023-01-31T07:58:16.763Z,100.00
2023-01-31T08:03:34.565Z,100.00
2023-01-31T08:08:37.857Z,100.00
2023-01-31T08:13:39.933Z,100.00
2023-01-31T08:18:41.705Z,100.00
2023-01-31T08:23:44.669Z,100.00
2023-01-31T08:28:48.286Z,100.00
2023-01-31T08:33:53.420Z,100.00
2023-01-31T08:38:55.718Z,100.00
2023-01-31T08:43:59.017Z,100.00
2023-01-31T08:49:03.000Z,100.00
2023-01-31T08:54:04.671Z,100.00
2023-01-31T08:59:07.357Z,100.00
2023-01-31T09:04:13.386Z,100.00
2023-01-31T09:09:15.052Z,100.00
2023-01-31T09:14:16.557Z,100.00
2023-01-31T09:19:18.200Z,100.00
2023-01-31T09:25:06.235Z,100.00
2023-01-31T09:30:10.411Z,100.00
2023-01-31T09:35:16.584Z,100.00
2023-01-31T09:40:26.588Z,100.00
2023-01-31T09:45:43.184Z,100.00
2023-01-31T09:50:51.940Z,100.00
2023-01-31T09:56:07.314Z,99.98
2023-01-31T10:01:16.003Z,100.00
2023-01-31T10:06:30.607Z,100.00
2023-01-31T10:11:41.006Z,98.50
2023-01-31T10:16:50.379Z,97.10
2023-01-31T10:21:57.573Z,96.13
2023-01-31T10:27:15.980Z,96.93
2023-01-31T10:32:55.193Z,97.02
2023-01-31T10:38:32.252Z,95.18
2023-01-31T10:43:42.065Z,94.36
2023-01-31T10:48:47.313Z,92.37
2023-01-31T10:54:07.036Z,93.64
2023-01-31T10:59:19.326Z,94.42
2023-01-31T11:04:25.492Z,94.19
2023-01-31T11:09:49.775Z,92.32
2023-01-31T11:15:14.242Z,90.09
2023-01-31T11:20:21.480Z,89.57
2023-01-31T11:25:25.373Z,89.31
2023-01-31T11:30:35.087Z,88.79
2023-01-31T11:35:36.723Z,88.23
2023-01-31T11:40:40.247Z,85.84
2023-01-31T11:45:54.074Z,86.11
2023-01-31T11:50:58.388Z,86.45
2023-01-31T11:56:16.584Z,86.26
2023-01-31T12:01:23.124Z,85.57
2023-01-31T12:06:27.692Z,86.78
2023-01-31T12:11:31.932Z,86.17
2023-01-31T12:16:35.414Z,86.87
2023-01-31T12:22:08.081Z,86.04
2023-01-31T12:27:37.117Z,86.32
2023-01-31T12:32:54.512Z,84.63
2023-01-31T12:38:07.033Z,83.56
2023-01-31T12:43:45.881Z,82.90
2023-01-31T12:48:47.876Z,82.04
2023-01-31T12:54:04.904Z,82.14
2023-01-31T12:59:48.389Z,82.66
2023-01-31T13:04:59.616Z,82.32
2023-01-31T13:10:05.354Z,81.15
2023-01-31T13:15:30.361Z,79.92
2023-01-31T13:20:38.833Z,80.41
2023-01-31T13:26:14.893Z,79.55
2023-01-31T13:31:24.847Z,81.01
2023-01-31T13:36:35.461Z,80.81
2023-01-31T13:41:37.196Z,79.43
2023-01-31T13:46:56.184Z,79.83
2023-01-31T13:52:00.424Z,79.68
2023-01-31T13:57:03.083Z,80.74
2023-01-31T14:02:17.139Z,80.40
2023-01-31T14:07:21.143Z,80.82
2023-01-31T14:12:22.848Z,80.78
2023-01-31T14:17:33.074Z,80.58
2023-01-31T14:22:41.327Z,80.65
2023-01-31T14:27:42.889Z,80.69
2023-01-31T14:32:48.683Z,81.04
2023-01-31T14:38:08.297Z,81.27
2023-01-31T14:43:32.016Z,81.15
2023-01-31T14:48:45.682Z,81.21
2023-01-31T14:54:35.302Z,80.89
2023-01-31T14:59:59.788Z,79.61
2023-01-31T15:05:17.373Z,79.34
2023-01-31T15:10:58.177Z,80.17
2023-01-31T15:16:02.747Z,80.16
2023-01-31T15:21:07.517Z,80.53
2023-01-31T15:26:11.041Z,80.56
2023-01-31T15:31:41.270Z,80.13
2023-01-31T15:37:04.566Z,80.96
2023-01-31T15:42:26.949Z,80.63
2023-01-31T15:47:28.512Z,81.15
2023-01-31T15:52:34.404Z,81.97
2023-01-31T15:57:44.514Z,82.04
2023-01-31T16:02:47.224Z,82.17
2023-01-31T16:07:49.559Z,81.83
2023-01-31T16:12:53.196Z,82.74
2023-01-31T16:18:00.302Z,82.59
2023-01-31T16:23:02.646Z,82.36
2023-01-31T16:28:06.761Z,82.48
2023-01-31T16:33:16.833Z,82.58
2023-01-31T16:38:24.031Z,81.99
2023-01-31T16:43:31.823Z,82.38
2023-01-31T16:48:39.020Z,82.43
2023-01-31T16:53:41.637Z,83.13
2023-01-31T16:58:49.310Z,82.84
2023-01-31T17:04:09.026Z,82.80
2023-01-31T17:09:14.505Z,82.79
2023-01-31T17:14:16.021Z,83.24
2023-01-31T17:19:17.700Z,83.50
2023-01-31T17:24:22.627Z,83.43
2023-01-31T17:29:25.988Z,82.62
2023-01-31T17:34:27.550Z,83.22
2023-01-31T17:39:29.126Z,82.57
2023-01-31T17:44:31.058Z,83.03
2023-01-31T17:49:34.914Z,83.28
2023-01-31T17:54:36.501Z,84.19
2023-01-31T17:59:38.185Z,83.38
2023-01-31T18:04:39.768Z,83.85
2023-01-31T18:09:41.332Z,83.86
2023-01-31T18:14:43.084Z,84.58
2023-01-31T18:19:44.593Z,84.31
2023-01-31T18:24:46.211Z,84.12
2023-01-31T18:29:47.725Z,84.54
2023-01-31T18:34:49.446Z,84.60
2023-01-31T18:39:52.659Z,84.83
2023-01-31T18:44:54.253Z,85.33
2023-01-31T18:49:55.905Z,84.68
2023-01-31T18:54:57.534Z,85.59
2023-01-31T18:59:59.072Z,85.24
2023-01-31T19:05:01.830Z,86.13
2023-01-31T19:10:04.101Z,86.19
2023-01-31T19:15:07.732Z,86.18
2023-01-31T19:20:10.247Z,86.32
2023-01-31T19:25:11.892Z,86.06
2023-01-31T19:30:14.067Z,85.63
2023-01-31T19:35:15.714Z,86.27
2023-01-31T19:40:17.480Z,87.83
2023-01-31T19:45:22.804Z,88.83
2023-01-31T19:50:24.572Z,88.76
2023-01-31T19:55:26.123Z,89.22
2023-01-31T20:00:31.811Z,89.13
2023-01-31T20:05:33.484Z,89.42
2023-01-31T20:10:37.441Z,89.38
2023-01-31T20:15:39.038Z,90.87
2023-01-31T20:20:44.115Z,91.60
2023-01-31T20:25:49.421Z,91.56
2023-01-31T20:30:51.443Z,92.88
2023-01-31T20:35:53.049Z,93.76
2023-01-31T20:40:55.563Z,94.51
2023-01-31T20:46:10.380Z,94.85
2023-01-31T20:51:11.987Z,95.02
2023-01-31T20:56:13.582Z,95.90
2023-01-31T21:01:15.224Z,97.09
2023-01-31T21:06:16.797Z,97.16
2023-01-31T21:11:18.383Z,98.21
2023-01-31T21:16:20.086Z,97.56
2023-01-31T21:21:24.365Z,98.25
2023-01-31T21:26:27.127Z,98.01
2023-01-31T21:31:29.963Z,98.26
2023-01-31T21:36:32.961Z,98.26
2023-01-31T21:41:52.725Z,98.70
2023-01-31T21:46:54.267Z,98.14
2023-01-31T21:51:55.831Z,98.09
2023-01-31T21:56:57.883Z,97.69
2023-01-31T22:01:59.674Z,97.63
2023-01-31T22:07:01.641Z,97.59
2023-01-31T22:12:03.367Z,98.35
2023-01-31T22:17:05.109Z,98.27
2023-01-31T22:22:06.640Z,98.42
2023-01-31T22:27:08.185Z,98.71
2023-01-31T22:32:09.869Z,98.64
2023-01-31T22:37:11.505Z,98.71
2023-01-31T22:42:13.058Z,98.75
2023-01-31T22:47:14.681Z,98.86
2023-01-31T22:52:16.263Z,99.06
2023-01-31T22:57:17.843Z,98.91
2023-01-31T23:02:19.369Z,99.72
2023-01-31T23:07:20.920Z,100.00
2023-01-31T23:12:22.533Z,100.00
2023-01-31T23:17:39.365Z,100.00
2023-01-31T23:22:41.461Z,100.00
2023-01-31T23:27:43.610Z,100.00
2023-01-31T23:32:45.586Z,100.00
2023-01-31T23:37:49.609Z,100.00
2023-01-31T23:42:51.185Z,100.00
2023-01-31T23:47:52.871Z,100.00
2023-01-31T23:52:55.844Z,100.00
2023-01-31T23:57:57.384Z,100.00
